Time;durP1;ratioP1;P1;durP2;ratioP2;P2;SDS_P1;SDS_P2;PMS_P1;PMS_P2;Temp;Humidity;BMP_temperature;BMP_pressure;BME280_temperature;BME280_humidity;BME280_pressure;Samples;Min_cycle;Max_cycle;Signal;HPM_P1;HPM_P2
2022/07/07 00:02:21;;;;;;;;;2.00;2.00;;;;;21.31;49.87;101909.56;5075857;27;45327;-82
2022/07/07 00:04:46;;;;;;;;;1.25;1.25;;;;;21.51;50.00;101952.53;5075151;27;45399;-85
2022/07/07 00:07:11;;;;;;;;;2.00;2.00;;;;;21.46;49.74;101946.25;5076380;28;45378;-84
2022/07/07 00:09:37;;;;;;;;;2.50;2.00;;;;;21.42;50.37;101941.75;5076696;28;46759;-84
2022/07/07 00:12:03;;;;;;;;;1.75;1.00;;;;;21.37;50.43;101927.44;5076052;28;45363;-82
2022/07/07 00:14:28;;;;;;;;;1.00;1.00;;;;;21.51;50.47;101952.53;5057902;28;45343;-82
2022/07/07 00:16:54;;;;;;;;;2.00;1.00;;;;;21.52;50.58;101959.66;5073551;28;45584;-82
2022/07/07 00:19:19;;;;;;;;;1.50;1.50;;;;;21.34;50.37;101943.47;5076048;28;46242;-82
2022/07/07 00:21:44;;;;;;;;;1.00;1.00;;;;;21.38;50.93;101947.97;5057888;28;45431;-82
2022/07/07 00:24:10;;;;;;;;;2.00;2.00;;;;;21.34;51.12;101949.72;5057802;28;45288;-82
2022/07/07 00:26:35;;;;;;;;;2.00;1.00;;;;;21.15;50.83;101917.41;5076027;28;45407;-85
2022/07/07 00:29:00;;;;;;;;;1.25;1.25;;;;;21.28;50.85;101938.94;5075842;28;45406;-82
2022/07/07 00:31:26;;;;;;;;;1.00;1.00;;;;;21.20;51.33;101926.34;5075516;28;45611;-82
2022/07/07 00:33:52;;;;;;;;;1.00;1.00;;;;;21.01;51.50;101894.09;5074530;28;45256;-82
2022/07/07 00:36:17;;;;;;;;;2.00;2.00;;;;;21.22;51.79;101936.16;5075856;28;45447;-83
2022/07/07 00:38:42;;;;;;;;;3.00;2.00;;;;;21.24;51.66;101944.22;5075855;28;45516;-83
2022/07/07 00:41:08;;;;;;;;;2.00;2.00;;;;;21.09;51.65;101929.81;5057450;28;45607;-82
2022/07/07 00:43:41;;;;;;;;;1.00;1.00;;;;;21.21;51.92;101954.88;5075981;28;45324;-82
2022/07/07 00:46:07;;;;;;;;;2.00;2.00;;;;;21.04;51.90;101927.97;5075303;28;45371;-82
2022/07/07 00:48:35;;;;;;;;;1.00;1.00;;;;;20.95;52.21;101912.75;5075301;28;46167;-82
2022/07/07 00:51:03;;;;;;;;;1.50;1.50;;;;;21.00;52.12;101921.69;5075626;27;45775;-84
2022/07/07 00:53:28;;;;;;;;;1.00;1.00;;;;;21.00;52.24;101927.03;5074122;27;45460;-82
2022/07/07 00:55:54;;;;;;;;;1.50;1.50;;;;;20.99;52.77;101927.94;5074161;28;45515;-82
2022/07/07 00:58:19;;;;;;;;;2.00;2.00;;;;;20.86;52.20;101910.84;5057006;28;47630;-84
2022/07/07 01:00:45;;;;;;;;;2.00;1.00;;;;;20.94;52.60;101924.31;5075357;28;45499;-82
2022/07/07 01:03:11;;;;;;;;;1.75;1.25;;;;;20.88;52.89;101918.88;5075835;28;45520;-82
2022/07/07 01:05:38;;;;;;;;;1.25;1.25;;;;;20.81;52.47;101914.34;5075340;28;45516;-81
2022/07/07 01:08:04;;;;;;;;;2.00;2.00;;;;;20.83;52.42;101912.59;5056792;28;47323;-82
2022/07/07 01:10:31;;;;;;;;;2.00;1.75;;;;;20.91;52.71;101918.94;5075327;28;45383;-81
2022/07/07 01:13:00;;;;;;;;;2.00;2.00;;;;;20.87;52.83;101917.09;5075184;28;45474;-82
2022/07/07 01:15:25;;;;;;;;;2.00;2.00;;;;;20.81;53.23;101903.66;5074902;28;45366;-82
2022/07/07 01:17:51;;;;;;;;;1.75;1.75;;;;;20.79;52.97;101900.09;5075814;28;45688;-82
2022/07/07 01:20:19;;;;;;;;;2.00;2.00;;;;;20.68;52.86;101872.34;5056724;28;49665;-82
2022/07/07 01:22:51;;;;;;;;;2.00;2.00;;;;;20.71;53.00;101891.97;5075304;28;45475;-81
2022/07/07 01:25:16;;;;;;;;;2.25;2.00;;;;;20.68;53.06;101888.38;5075208;28;45295;-83
2022/07/07 01:27:42;;;;;;;;;2.00;2.00;;;;;20.64;53.33;101889.22;5074947;28;46589;-83
2022/07/07 01:30:07;;;;;;;;;2.00;2.00;;;;;20.46;53.48;101872.06;5074987;28;45440;-82
2022/07/07 01:32:33;;;;;;;;;3.00;2.00;;;;;20.36;53.87;101870.16;5074898;28;45436;-82
2022/07/07 01:35:01;;;;;;;;;2.00;2.00;;;;;20.51;53.92;101906.88;5075141;28;45255;-84
2022/07/07 01:37:27;;;;;;;;;2.25;2.00;;;;;20.09;54.34;101854.69;5056607;28;47193;-82
2022/07/07 01:39:53;;;;;;;;;1.00;1.00;;;;;20.31;54.51;101903.94;5056633;28;45414;-82
2022/07/07 01:42:18;;;;;;;;;3.00;2.75;;;;;20.27;54.29;101894.09;5074855;27;45396;-83
2022/07/07 01:44:44;;;;;;;;;1.75;1.75;;;;;20.17;54.50;101884.16;5074962;28;45303;-84
2022/07/07 01:47:11;;;;;;;;;1.25;1.25;;;;;20.27;54.66;101899.41;5074091;28;45637;-82
2022/07/07 01:49:38;;;;;;;;;2.00;2.00;;;;;20.31;54.44;101903.94;5056766;28;45947;-84
2022/07/07 01:52:05;;;;;;;;;2.00;2.00;;;;;20.30;54.39;101905.69;5074897;28;45300;-85
2022/07/07 01:54:32;;;;;;;;;1.75;1.75;;;;;20.20;54.53;101892.22;5074775;27;45547;-81
2022/07/07 01:56:58;;;;;;;;;2.00;2.00;;;;;20.00;54.86;101854.53;5073259;28;46827;-82
2022/07/07 01:59:23;;;;;;;;;2.50;2.50;;;;;19.97;55.15;101858.09;5074804;28;45505;-83
2022/07/07 02:01:48;;;;;;;;;1.50;1.25;;;;;20.07;55.05;101884.03;5074423;27;45492;-84
2022/07/07 02:04:15;;;;;;;;;2.00;2.00;;;;;20.13;54.63;101893.88;5074898;28;45575;-84
2022/07/07 02:06:40;;;;;;;;;1.25;1.25;;;;;20.01;54.90;101869.72;5074388;28;45524;-82
2022/07/07 02:09:06;;;;;;;;;1.50;1.50;;;;;20.13;55.03;101896.56;5074632;28;45533;-84
2022/07/07 02:11:32;;;;;;;;;2.75;2.75;;;;;20.04;55.11;101877.75;5056217;28;45404;-85
2022/07/07 02:13:58;;;;;;;;;2.50;2.50;;;;;20.02;55.45;101872.38;5074561;27;45316;-83
2022/07/07 02:16:25;;;;;;;;;1.00;1.00;;;;;20.02;55.42;101880.41;5073897;28;46301;-83
2022/07/07 02:18:54;;;;;;;;;2.00;2.00;;;;;20.03;55.69;101876.84;5072869;27;46085;-82
2022/07/07 02:21:20;;;;;;;;;1.00;1.00;;;;;19.82;55.71;101848.09;5074320;27;45509;-83
2022/07/07 02:23:47;;;;;;;;;1.75;1.75;;;;;19.97;55.85;101873.22;5074034;28;45387;-83
2022/07/07 02:26:13;;;;;;;;;3.00;2.00;;;;;19.86;55.54;101850.81;5073101;28;47350;-82
2022/07/07 02:28:39;;;;;;;;;2.00;2.00;;;;;19.76;55.93;101837.34;5074197;28;45520;-82
2022/07/07 02:31:05;;;;;;;;;1.50;1.50;;;;;19.83;55.92;101860.56;5072469;28;45315;-82
2022/07/07 02:33:31;;;;;;;;;2.00;2.00;;;;;19.65;56.11;101846.03;5055862;28;45679;-83
2022/07/07 02:35:57;;;;;;;;;2.25;2.00;;;;;19.63;56.10;101840.69;5055689;28;47316;-83
2022/07/07 02:38:23;;;;;;;;;3.75;2.25;;;;;19.75;55.96;101866.66;5055611;28;45658;-82
2022/07/07 02:40:49;;;;;;;;;2.00;2.00;;;;;19.71;56.27;101865.72;5073220;28;45469;-82
2022/07/07 02:43:14;;;;;;;;;3.00;3.00;;;;;19.64;56.51;101854.94;5073902;28;45677;-81
2022/07/07 02:45:41;;;;;;;;;2.00;2.00;;;;;19.74;56.27;101870.19;5055039;28;47342;-85
2022/07/07 02:48:11;;;;;;;;;2.00;2.00;;;;;19.73;56.75;101873.75;5073504;28;45998;-84
2022/07/07 02:50:38;;;;;;;;;1.25;1.25;;;;;19.64;56.69;101862.94;5055922;28;45444;-82
2022/07/07 02:53:04;;;;;;;;;2.50;1.75;;;;;19.71;56.15;101864.84;5055584;28;45646;-81
2022/07/07 02:55:30;;;;;;;;;3.00;3.00;;;;;19.69;56.75;101863.91;5073708;28;48328;-83
2022/07/07 02:58:00;;;;;;;;;2.25;1.25;;;;;19.54;56.20;101840.53;5072550;28;45493;-81
2022/07/07 03:00:27;;;;;;;;;3.00;3.00;;;;;19.67;56.45;101849.66;5055149;28;45292;-81
2022/07/07 03:02:53;;;;;;;;;3.50;2.75;;;;;19.48;56.67;101820.00;5073556;28;45386;-82
2022/07/07 03:05:20;;;;;;;;;3.00;2.00;;;;;19.64;56.48;101854.94;5072020;27;47059;-82
2022/07/07 03:07:45;;;;;;;;;2.75;2.00;;;;;19.63;56.77;101854.03;5055508;28;45768;-82
2022/07/07 03:10:10;;;;;;;;;3.25;2.50;;;;;19.64;56.63;101863.81;5073617;28;45423;-82
2022/07/07 03:12:36;;;;;;;;;2.50;2.50;;;;;19.70;56.79;101868.34;5073813;28;45264;-84
2022/07/07 03:15:01;;;;;;;;;2.25;2.25;;;;;19.55;56.94;101853.88;5073100;28;45604;-82
2022/07/07 03:17:27;;;;;;;;;2.00;2.00;;;;;19.35;56.88;101815.34;5073423;27;45530;-82
2022/07/07 03:19:52;;;;;;;;;4.00;3.00;;;;;19.52;56.54;101836.94;5073595;28;45378;-83
2022/07/07 03:22:17;;;;;;;;;2.00;2.00;;;;;19.62;56.88;101862.03;5073536;28;45440;-84
2022/07/07 03:24:43;;;;;;;;;2.25;2.00;;;;;19.58;56.89;101845.03;5072048;28;46785;-81
2022/07/07 03:27:08;;;;;;;;;2.00;2.00;;;;;19.55;56.60;101842.31;5073383;28;45323;-84
2022/07/07 03:29:34;;;;;;;;;3.00;2.75;;;;;19.63;56.67;101866.47;5072020;28;46710;-81
2022/07/07 03:31:59;;;;;;;;;3.00;3.00;;;;;19.55;56.70;101851.19;5071862;28;45514;-83
2022/07/07 03:34:25;;;;;;;;;3.00;3.00;;;;;19.49;56.89;101847.56;5071608;28;48049;-83
2022/07/07 03:36:50;;;;;;;;;3.00;3.00;;;;;19.54;57.05;101865.41;5055090;28;45867;-82
2022/07/07 03:39:15;;;;;;;;;3.00;3.00;;;;;19.51;57.08;101852.06;5073366;28;45346;-85
2022/07/07 03:41:41;;;;;;;;;4.33;4.00;;;;;19.52;57.17;101855.63;5072805;28;45260;-82
2022/07/07 03:44:06;;;;;;;;;3.00;2.50;;;;;19.61;57.22;101874.47;5073253;28;46537;-85
2022/07/07 03:46:31;;;;;;;;;3.00;3.00;;;;;19.47;57.53;101857.31;5072822;28;45395;-82
2022/07/07 03:48:57;;;;;;;;;3.50;2.50;;;;;19.46;57.25;101859.09;5073031;28;45465;-84
2022/07/07 03:51:22;;;;;;;;;2.25;2.25;;;;;19.43;57.53;101858.13;5055673;27;45528;-83
2022/07/07 03:53:48;;;;;;;;;3.00;2.75;;;;;19.37;57.87;101850.94;5076329;28;45422;-82
2022/07/07 03:56:13;;;;;;;;;3.25;2.25;;;;;19.28;57.82;101832.13;5076481;28;45418;-82
2022/07/07 03:58:38;;;;;;;;;4.00;4.00;;;;;19.26;57.56;101836.50;5076252;28;45562;-82
2022/07/07 04:01:04;;;;;;;;;3.00;3.00;;;;;19.32;57.84;101848.19;5076208;27;45404;-82
2022/07/07 04:03:29;;;;;;;;;3.75;3.75;;;;;19.30;58.02;101839.25;5076274;27;45449;-84
2022/07/07 04:05:55;;;;;;;;;3.00;2.25;;;;;19.00;57.99;101796.13;5076184;28;47390;-81
2022/07/07 04:08:20;;;;;;;;;2.25;2.25;;;;;19.18;58.05;101830.19;5076632;28;45393;-83
2022/07/07 04:10:45;;;;;;;;;2.50;2.50;;;;;19.12;58.44;101824.75;5076422;28;45375;-83
2022/07/07 04:13:11;;;;;;;;;3.00;3.00;;;;;19.31;58.35;101856.19;5076180;28;45372;-82
2022/07/07 04:15:36;;;;;;;;;4.00;3.00;;;;;19.29;58.51;101855.22;5075924;28;45493;-81
2022/07/07 04:18:03;;;;;;;;;2.75;2.75;;;;;19.23;58.68;101852.47;5076140;28;45346;-83
2022/07/07 04:20:29;;;;;;;;;4.50;4.50;;;;;19.08;58.87;101829.13;5076274;28;45689;-83
2022/07/07 04:22:55;;;;;;;;;3.75;3.75;;;;;19.12;59.13;101833.66;5075863;27;45419;-84
2022/07/07 04:25:21;;;;;;;;;3.00;3.00;;;;;18.98;59.21;101813.84;5074800;28;45781;-82
2022/07/07 04:27:46;;;;;;;;;3.00;3.00;;;;;19.12;59.17;101830.09;5076336;27;45482;-82
2022/07/07 04:30:12;;;;;;;;;2.00;2.00;;;;;19.11;58.85;101838.91;5075665;27;45776;-83
2022/07/07 04:32:37;;;;;;;;;5.50;4.50;;;;;19.00;58.89;101818.31;5076041;28;45637;-82
2022/07/07 04:35:02;;;;;;;;;3.00;3.00;;;;;19.26;59.30;101857.84;5057263;27;47287;-82
2022/07/07 04:37:28;;;;;;;;;4.50;3.75;;;;;19.17;59.31;101839.06;5076139;28;45344;-83
2022/07/07 04:39:53;;;;;;;;;2.75;2.75;;;;;19.07;59.18;101814.91;5076059;28;45527;-82
2022/07/07 04:42:18;;;;;;;;;3.50;3.00;;;;;19.16;59.00;101835.50;5075662;28;45473;-82
2022/07/07 04:44:44;;;;;;;;;3.00;3.00;;;;;19.18;58.91;101828.41;5075762;28;45449;-82
2022/07/07 04:47:09;;;;;;;;;5.00;4.00;;;;;19.13;59.05;101827.44;5075445;27;45300;-82
2022/07/07 04:49:34;;;;;;;;;3.00;3.00;;;;;19.21;58.70;101841.78;5075721;28;45331;-82
2022/07/07 04:52:00;;;;;;;;;3.25;3.00;;;;;19.00;59.46;101802.34;5057245;28;46098;-84
2022/07/07 04:54:25;;;;;;;;;3.25;3.00;;;;;19.17;59.31;101833.72;5075420;28;45335;-82
2022/07/07 04:56:51;;;;;;;;;3.25;3.00;;;;;19.22;59.42;101848.03;5075681;28;45550;-81
2022/07/07 04:59:16;;;;;;;;;3.00;3.00;;;;;19.17;59.11;101834.63;5075989;28;45507;-84
2022/07/07 05:01:41;;;;;;;;;3.25;3.25;;;;;19.17;59.64;101853.28;5056793;28;45921;-82
2022/07/07 05:04:07;;;;;;;;;3.75;3.50;;;;;19.32;59.27;101876.63;5075301;28;45406;-86
2022/07/07 05:06:32;;;;;;;;;3.25;3.25;;;;;19.17;59.67;101852.38;5075520;28;45457;-83
2022/07/07 05:08:58;;;;;;;;;4.00;4.00;;;;;19.27;59.74;101867.66;5075607;28;45431;-83
2022/07/07 05:11:23;;;;;;;;;3.00;3.00;;;;;19.39;60.07;101885.59;5075368;28;46694;-85
2022/07/07 05:13:48;;;;;;;;;3.00;3.00;;;;;19.34;59.75;101872.19;5075107;28;45216;-81
2022/07/07 05:16:13;;;;;;;;;5.00;4.25;;;;;19.19;59.63;101839.97;5074848;28;45323;-84
2022/07/07 05:18:39;;;;;;;;;4.00;3.50;;;;;19.30;60.04;101862.34;5075086;28;46460;-84
2022/07/07 05:21:04;;;;;;;;;3.25;3.25;;;;;19.38;60.17;101878.50;5056942;28;46117;-84
2022/07/07 05:23:30;;;;;;;;;2.75;2.50;;;;;19.35;60.12;101860.66;5075175;28;45382;-83
2022/07/07 05:25:56;;;;;;;;;3.00;3.00;;;;;19.49;60.17;101880.44;5075224;27;45430;-82
2022/07/07 05:28:21;;;;;;;;;4.50;4.50;;;;;19.42;60.01;101870.56;5075487;28;45501;-83
2022/07/07 05:30:47;;;;;;;;;4.00;3.25;;;;;19.52;59.79;101887.63;5074434;28;45479;-84
2022/07/07 05:33:12;;;;;;;;;3.00;3.00;;;;;19.53;59.62;101878.75;5074674;28;45541;-83
2022/07/07 05:35:38;;;;;;;;;6.00;5.00;;;;;19.44;59.86;101858.16;5075263;28;45379;-84
2022/07/07 05:38:03;;;;;;;;;3.00;3.00;;;;;19.55;59.94;101866.31;5075204;28;45675;-82
2022/07/07 05:40:30;;;;;;;;;4.75;4.00;;;;;19.48;60.00;101844.00;5074572;27;45356;-84
2022/07/07 05:42:55;;;;;;;;;3.75;3.75;;;;;19.71;60.05;101867.50;5075027;27;45901;-82
2022/07/07 05:45:21;;;;;;;;;3.00;3.00;;;;;19.96;59.61;101899.00;5074601;27;45377;-82
2022/07/07 05:47:47;;;;;;;;;2.50;2.50;;;;;19.97;59.44;101886.56;5074823;28;45546;-82
2022/07/07 05:50:12;;;;;;;;;4.00;3.25;;;;;20.10;59.51;101900.09;5074986;28;46343;-83
2022/07/07 05:52:38;;;;;;;;;6.75;6.00;;;;;19.95;59.22;101883.88;5074597;28;45280;-83
2022/07/07 05:55:04;;;;;;;;;3.75;3.25;;;;;20.03;59.30;101876.84;5073472;28;45428;-82
2022/07/07 05:57:31;;;;;;;;;2.75;2.75;;;;;20.14;59.14;101885.00;5074894;28;45646;-84
2022/07/07 05:59:56;;;;;;;;;4.25;4.00;;;;;20.04;58.76;101862.63;5073037;28;45960;-82
2022/07/07 06:02:22;;;;;;;;;2.75;2.75;;;;;20.28;59.08;101901.22;5074626;28;45398;-82
2022/07/07 06:04:47;;;;;;;;;2.00;2.00;;;;;20.41;59.03;101904.94;5073486;28;45372;-84
2022/07/07 06:07:12;;;;;;;;;2.25;2.25;;;;;20.36;58.81;101897.75;5074695;27;45458;-84
2022/07/07 06:09:37;;;;;;;;;4.25;3.00;;;;;20.28;58.81;101886.06;5074342;28;45471;-83
2022/07/07 06:12:03;;;;;;;;;3.00;3.00;;;;;20.44;58.80;101899.63;5074401;27;45388;-85
2022/07/07 06:14:29;;;;;;;;;3.25;3.00;;;;;20.41;59.03;101884.47;5055361;28;45457;-85
2022/07/07 06:16:54;;;;;;;;;4.00;4.00;;;;;20.51;58.41;101902.44;5074088;28;45507;-83
2022/07/07 06:19:19;;;;;;;;;6.50;4.75;;;;;20.63;58.56;101909.69;5074263;28;46250;-82
2022/07/07 06:21:45;;;;;;;;;5.25;4.25;;;;;20.55;58.70;101888.25;5074231;28;45393;-85
2022/07/07 06:24:11;;;;;;;;;3.00;3.00;;;;;20.75;58.16;101916.97;5072931;28;45454;-83
2022/07/07 06:26:37;;;;;;;;;2.00;2.00;;;;;20.82;58.29;101925.06;5074371;28;45540;-83
2022/07/07 06:29:03;;;;;;;;;3.25;2.75;;;;;20.81;58.17;101909.91;5074133;28;45492;-81
2022/07/07 06:31:29;;;;;;;;;2.00;2.00;;;;;20.70;58.36;101900.00;5073997;28;45490;-81
2022/07/07 06:33:54;;;;;;;;;3.00;2.50;;;;;20.75;57.91;101914.31;5074252;28;45550;-84
2022/07/07 06:36:19;;;;;;;;;3.00;1.25;;;;;20.82;58.21;101919.72;5074152;28;45306;-84
2022/07/07 06:38:45;;;;;;;;;3.00;3.00;;;;;20.85;58.23;101918.88;5073833;27;48664;-85
2022/07/07 06:41:10;;;;;;;;;2.50;2.00;;;;;20.77;58.34;101913.41;5073965;28;46577;-82
2022/07/07 06:43:36;;;;;;;;;5.00;4.00;;;;;20.68;58.54;101888.38;5074104;28;45363;-84
2022/07/07 06:46:02;;;;;;;;;2.25;2.25;;;;;20.91;58.28;101920.72;5055331;28;45450;-84
2022/07/07 06:48:27;;;;;;;;;3.00;2.75;;;;;20.97;58.08;101927.00;5073948;28;45549;-81
2022/07/07 06:50:52;;;;;;;;;3.50;3.50;;;;;20.91;57.92;101907.34;5073580;28;48031;-84
2022/07/07 06:53:18;;;;;;;;;2.00;2.00;;;;;20.98;58.26;101919.88;5073877;28;45557;-82
2022/07/07 06:55:44;;;;;;;;;2.00;2.00;;;;;20.94;58.22;101910.94;5074149;28;46493;-85
2022/07/07 06:58:09;;;;;;;;;5.00;3.00;;;;;21.01;58.02;101915.47;5073670;28;46310;-85
2022/07/07 07:00:34;;;;;;;;;3.00;2.00;;;;;21.11;57.48;101924.47;5073304;27;45618;-82
2022/07/07 07:03:00;;;;;;;;;3.25;2.25;;;;;21.11;57.65;101920.03;5074011;28;45553;-82
2022/07/07 07:05:26;;;;;;;;;3.25;3.25;;;;;21.20;57.65;101937.94;5072258;27;45526;-82
2022/07/07 07:07:51;;;;;;;;;3.00;3.00;;;;;21.26;57.34;101940.66;5072143;28;47156;-83
2022/07/07 07:10:16;;;;;;;;;2.00;2.00;;;;;21.43;57.34;101950.66;5055452;28;45414;-82
2022/07/07 07:12:42;;;;;;;;;3.00;3.00;;;;;21.26;57.39;101913.03;5073772;27;45551;-84
2022/07/07 07:15:08;;;;;;;;;2.00;2.00;;;;;21.43;57.21;101932.84;5073526;27;45668;-82
2022/07/07 07:17:33;;;;;;;;;2.75;2.75;;;;;21.55;57.23;101948.09;5073997;28;46488;-84
2022/07/07 07:19:59;;;;;;;;;2.50;1.75;;;;;21.46;57.48;101916.81;5073485;28;45368;-82
2022/07/07 07:22:25;;;;;;;;;2.00;2.00;;;;;21.70;56.79;101961.59;5073461;28;45262;-81
2022/07/07 07:24:51;;;;;;;;;3.50;2.75;;;;;21.58;56.96;101935.66;5073426;28;45214;-85
2022/07/07 07:27:17;;;;;;;;;2.00;2.00;;;;;21.72;56.41;101964.28;5076896;28;45554;-82
2022/07/07 07:29:42;;;;;;;;;1.75;1.75;;;;;21.75;56.87;101967.00;5076667;28;45519;-84
2022/07/07 07:32:08;;;;;;;;;2.00;2.00;;;;;21.78;56.44;101962.59;5077097;27;45482;-82
2022/07/07 07:34:33;;;;;;;;;1.50;1.50;;;;;21.96;56.48;101982.31;5075551;28;45338;-84
2022/07/07 07:36:59;;;;;;;;;2.75;2.25;;;;;21.89;56.47;101974.25;5076911;27;46208;-84
2022/07/07 07:39:24;;;;;;;;;3.00;3.00;;;;;21.85;56.17;101963.50;5076726;28;45339;-82
2022/07/07 07:41:50;;;;;;;;;3.75;3.00;;;;;21.85;55.91;101955.47;5058355;28;45366;-82
2022/07/07 07:46:59;;;;;;;;;2.00;2.00;;;;;22.19;55.92;102003.97;5076341;28;45863;-85
2022/07/07 07:49:24;;;;;;;;;2.50;2.50;;;;;22.16;56.09;101986.06;5076514;28;45411;-83
2022/07/07 07:51:49;;;;;;;;;2.25;2.25;;;;;22.09;55.23;101955.66;5076819;28;45544;-82
2022/07/07 07:54:15;;;;;;;;;3.50;2.25;;;;;22.36;55.32;101988.88;5075159;27;45366;-84
2022/07/07 07:56:40;;;;;;;;;4.25;3.75;;;;;22.27;55.23;101967.41;5076688;28;46776;-83
2022/07/07 07:59:05;;;;;;;;;3.25;2.00;;;;;22.37;55.09;101974.63;5076487;28;45339;-82
2022/07/07 08:01:31;;;;;;;;;2.00;2.00;;;;;22.62;55.36;102010.47;5076067;27;45355;-84
2022/07/07 08:03:56;;;;;;;;;3.00;2.00;;;;;22.60;55.05;102007.75;5076423;27;45412;-85
2022/07/07 08:06:21;;;;;;;;;1.75;1.75;;;;;22.58;55.22;101995.25;5076336;28;46090;-82
2022/07/07 08:08:47;;;;;;;;;3.00;2.75;;;;;22.46;54.37;101985.34;5076334;28;51193;-82
2022/07/07 08:11:12;;;;;;;;;2.75;2.50;;;;;22.34;54.63;101993.34;5076846;28;45765;-84
2022/07/07 08:13:37;;;;;;;;;3.25;2.25;;;;;22.15;55.59;101985.19;5076402;28;45494;-84
2022/07/07 08:16:03;;;;;;;;;2.00;2.00;;;;;22.12;55.60;101985.19;5075941;27;45514;-82
2022/07/07 08:18:29;;;;;;;;;2.00;2.00;;;;;21.91;56.12;101963.56;5076231;28;45295;-84
2022/07/07 08:20:55;;;;;;;;;3.00;2.00;;;;;21.97;55.93;101977.00;5057752;28;45296;-83
2022/07/07 08:23:20;;;;;;;;;2.75;2.00;;;;;21.92;55.81;101968.03;5076122;27;45525;-82
2022/07/07 08:25:45;;;;;;;;;2.50;2.50;;;;;21.96;54.96;101985.91;5075770;28;45547;-83
2022/07/07 08:28:11;;;;;;;;;1.00;1.00;;;;;21.78;55.42;101954.56;5075918;28;45366;-82
2022/07/07 08:30:36;;;;;;;;;2.50;2.50;;;;;21.97;55.53;101982.34;5076448;27;45430;-83
2022/07/07 08:33:02;;;;;;;;;2.00;2.00;;;;;21.90;55.72;101964.44;5075700;28;45641;-82
2022/07/07 08:35:27;;;;;;;;;4.25;2.25;;;;;22.18;55.87;101978.06;5075955;28;45572;-82
2022/07/07 08:37:52;;;;;;;;;2.00;1.75;;;;;22.43;55.66;101992.50;5075006;27;45777;-83
2022/07/07 08:40:18;;;;;;;;;3.00;2.25;;;;;22.55;54.67;101974.69;5057294;28;48184;-84
2022/07/07 08:42:43;;;;;;;;;2.25;2.00;;;;;22.60;54.24;101954.16;5075654;28;45249;-83
2022/07/07 08:45:09;;;;;;;;;2.50;1.75;;;;;22.89;54.23;101975.75;5075541;28;46285;-83
2022/07/07 08:47:35;;;;;;;;;2.00;2.00;;;;;23.10;53.51;101988.38;5075368;28;45332;-82
2022/07/07 08:50:01;;;;;;;;;2.00;2.00;;;;;23.18;52.89;101999.09;5075822;28;45373;-84
2022/07/07 08:52:26;;;;;;;;;2.00;2.00;;;;;23.19;53.31;101992.84;5057451;28;45418;-83
2022/07/07 08:54:52;;;;;;;;;2.00;2.00;;;;;22.97;53.28;101957.03;5074196;28;46249;-82
2022/07/07 08:57:18;;;;;;;;;1.25;1.25;;;;;23.01;53.94;101976.72;5075503;28;45471;-82
2022/07/07 08:59:43;;;;;;;;;2.00;2.00;;;;;22.87;53.58;101971.28;5075791;28;45276;-83
2022/07/07 09:02:09;;;;;;;;;1.75;1.00;;;;;22.79;53.86;101975.69;5074987;28;45517;-83
2022/07/07 09:04:34;;;;;;;;;1.75;1.00;;;;;22.79;54.11;101984.63;5074137;28;47174;-82
2022/07/07 09:07:03;;;;;;;;;2.50;2.00;;;;;22.91;54.02;101970.44;5075516;28;45335;-84
2022/07/07 09:09:52;;;;;;;;;2.00;2.00;;;;;23.27;53.59;101988.41;5057093;28;45455;-83
2022/07/07 09:12:19;;;;;;;;;2.00;2.00;;;;;23.44;53.08;101983.94;5075515;28;45266;-82
2022/07/07 09:14:50;;;;;;;;;3.50;2.50;;;;;23.36;52.50;101956.22;5075031;28;45670;-84
2022/07/07 09:17:32;;;;;;;;;3.00;2.00;;;;;23.57;52.67;101995.59;5056412;28;45749;-83
2022/07/07 09:20:05;;;;;;;;;3.00;2.00;;;;;23.55;52.05;101989.34;5075078;27;45436;-83
2022/07/07 09:22:54;;;;;;;;;2.25;1.25;;;;;23.74;51.92;101987.56;5075232;28;45460;-83
2022/07/07 09:25:22;;;;;;;;;1.25;1.25;;;;;23.54;52.10;101947.25;5074984;28;45394;-84
2022/07/07 09:28:00;;;;;;;;;1.25;1.00;;;;;23.75;52.35;101975.06;5056997;28;45949;-82
2022/07/07 09:30:43;;;;;;;;;1.00;1.00;;;;;23.91;51.84;101992.94;5075229;28;45279;-83
2022/07/07 09:33:11;;;;;;;;;1.00;1.00;;;;;24.08;51.61;101993.81;5074728;28;45342;-84
2022/07/07 09:38:23;;;;;;;;;2.00;2.00;;;;;24.50;50.89;101994.66;5074797;27;46000;-84
2022/07/07 09:41:05;;;;;;;;;2.00;1.25;;;;;24.58;50.65;101997.31;5056446;28;45340;-82
2022/07/07 09:43:37;;;;;;;;;2.00;1.25;;;;;24.59;50.13;102002.72;5075033;28;45465;-84
2022/07/07 09:46:16;;;;;;;;;3.00;3.00;;;;;24.64;50.01;102005.38;5074976;28;45679;-84
2022/07/07 09:48:46;;;;;;;;;1.00;1.00;;;;;24.69;50.24;102009.84;5073381;28;45391;-82
2022/07/07 09:51:17;;;;;;;;;1.00;1.00;;;;;24.72;49.41;102008.91;5056399;28;45463;-82
2022/07/07 09:54:19;;;;;;;;;1.25;1.25;;;;;24.65;49.57;101985.66;5074971;28;45655;-84
2022/07/07 09:56:47;;;;;;;;;0.25;0.25;;;;;24.72;49.34;101992.78;5073923;28;45451;-83
2022/07/07 09:59:14;;;;;;;;;1.50;1.50;;;;;24.95;49.46;102022.28;5074610;28;45366;-83
2022/07/07 10:01:42;;;;;;;;;2.00;1.00;;;;;24.95;48.69;102019.59;5056140;28;45324;-83
2022/07/07 10:04:11;;;;;;;;;1.00;0.00;;;;;24.90;48.73;102026.78;5074714;28;45495;-85
2022/07/07 10:06:39;;;;;;;;;1.00;1.00;;;;;24.68;49.04;102021.50;5056264;28;47213;-82
2022/07/07 10:09:16;;;;;;;;;0.50;0.50;;;;;24.41;48.57;102018.88;5074495;28;45331;-82
2022/07/07 10:11:48;;;;;;;;;1.00;1.00;;;;;24.19;49.06;102009.94;5074430;28;45404;-85
2022/07/07 10:14:21;;;;;;;;;1.00;1.00;;;;;24.43;49.22;102050.25;5074202;28;45535;-82
2022/07/07 10:16:54;;;;;;;;;1.00;1.00;;;;;24.48;49.60;102047.50;5073939;28;45631;-83
2022/07/07 10:19:21;;;;;;;;;1.75;1.00;;;;;24.44;49.86;102059.19;5074317;27;45874;-83
2022/07/07 10:21:50;;;;;;;;;2.25;2.00;;;;;24.12;49.30;102025.16;5074450;28;45311;-83
2022/07/07 10:24:18;;;;;;;;;0.75;0.75;;;;;24.19;49.34;102055.63;5074368;28;45458;-84
2022/07/07 10:26:47;;;;;;;;;1.75;1.75;;;;;24.11;49.70;102057.41;5074289;27;46452;-82
2022/07/07 10:29:13;;;;;;;;;2.00;2.00;;;;;24.01;49.79;102066.34;5074293;28;45450;-82
2022/07/07 10:31:39;;;;;;;;;2.00;1.50;;;;;23.87;49.88;102051.13;5074123;28;45564;-84
2022/07/07 10:34:09;;;;;;;;;2.00;2.00;;;;;23.91;50.88;102049.34;5074037;28;45321;-82
2022/07/07 10:36:50;;;;;;;;;3.25;2.00;;;;;24.22;50.32;102089.63;5055926;28;47496;-82
2022/07/07 10:39:23;;;;;;;;;1.00;1.00;;;;;24.18;50.02;102097.69;5074521;28;46012;-84
2022/07/07 10:42:02;;;;;;;;;2.00;2.00;;;;;24.18;50.68;102102.16;5074053;28;45333;-85
2022/07/07 10:44:28;;;;;;;;;2.00;2.00;;;;;23.96;50.14;102068.16;5074648;28;45555;-85
2022/07/07 10:47:12;;;;;;;;;1.00;1.00;;;;;24.11;49.98;102103.06;5073599;28;46270;-85
2022/07/07 10:49:39;;;;;;;;;1.00;1.00;;;;;24.24;50.23;102110.25;5073733;28;45740;-83
2022/07/07 10:52:16;;;;;;;;;1.00;1.00;;;;;24.39;49.54;102094.16;5073926;28;45294;-82
2022/07/07 10:54:48;;;;;;;;;1.00;1.00;;;;;24.65;48.98;102103.97;5073823;28;45560;-82
2022/07/07 10:57:18;;;;;;;;;0.50;0.50;;;;;24.62;48.62;102077.94;5073901;28;45452;-83
2022/07/07 10:59:56;;;;;;;;;1.75;1.00;;;;;24.69;48.67;102105.75;5073668;28;45377;-83
2022/07/07 11:02:28;;;;;;;;;1.00;1.00;;;;;24.54;49.26;102092.34;5059184;28;45543;-82
2022/07/07 11:04:53;;;;;;;;;2.00;1.50;;;;;24.42;49.18;102086.06;5077754;27;45402;-82
2022/07/07 11:07:21;;;;;;;;;1.75;1.75;;;;;24.32;48.84;102064.53;5075903;28;48003;-82
2022/07/07 11:09:58;;;;;;;;;2.00;2.00;;;;;24.35;49.35;102057.38;5077411;28;45465;-83
2022/07/07 11:12:41;;;;;;;;;1.00;1.00;;;;;24.89;48.60;102117.34;5075908;28;45324;-82
2022/07/07 11:15:35;;;;;;;;;2.00;1.00;;;;;25.12;48.53;102097.56;5077140;28;45374;-85
2022/07/07 11:18:00;;;;;;;;;1.75;1.75;;;;;25.38;47.14;102116.31;5068936;28;45449;-84
2022/07/07 11:20:29;;;;;;;;;1.75;1.75;;;;;25.45;47.50;102118.94;5058711;27;45447;-85
2022/07/07 11:23:09;;;;;;;;;1.00;1.00;;;;;25.39;46.87;102121.66;5059146;28;45319;-82
2022/07/07 11:25:36;;;;;;;;;2.75;2.75;;;;;25.20;47.47;102099.31;5075587;27;45688;-84
2022/07/07 11:28:04;;;;;;;;;2.00;1.50;;;;;25.07;47.18;102094.88;5075620;27;47649;-82
2022/07/07 11:30:30;;;;;;;;;3.25;3.00;;;;;25.03;47.98;102101.16;5077034;28;45349;-82